Hauptseite
METAR-TAF:

METAR-TAF

Flughäfen :

Flughafen Agen

Agen, Frankreich

Breite: 44-11N, Länge: 000-36E, Höhe: 61 m

Beobachtung

Neuester Wetterbericht von vor 17 Minuten, um 19:00 UTC
Wind 9 kt aus Ost
Temperatur 10°C
Luftfeuchtigkeit 71%
Luftdruck 1011 hPa
Sichtweite 10 km oder mehr
keine Wolken unter 1500 m und keine Kumulonimbus oder Gewitterwolken

METAR: LFBA 181900Z AUTO 09009KT CAVOK 10/05 Q1011 NOSIG

Zeit: 20:17 (19:17 UTC)

Prognose

Neuester Wetterbericht von vor 2 Stunden und 17 Minuten, um 17:00 UTC
Gültige Prognose vom 18 um 18 UTC bis 19 um 03 UTC
Wind 12 kt aus Ost/Südost
Sichtweite 10 km oder mehr
keine Wolken unter 1500 m und keine Kumulonimbus oder Gewitterwolken
Übergehend zu
vom 18 um 22 UTC bis 18 um 24 UTC
Wind 5 kt aus Ost

TAF: LFBA 181700Z 1818/1903 12012KT CAVOK BECMG 1822/1824 09005KT

Wetterbeobachtungen und Prognosen von mehr als 4000 Flughäfen (METAR und TAF Bericht).

Die verfügbaren Stationen werden durch gelbe und rote Markierungen auf der Karte dargestellt.

Führen Sie die Maus auf sie, um den Namen der Station zu sehen.

Darauf klicken, um die Beobachtung von Wetterbeobachtungen und Prognosen zu sehen.

Um die Karte zu ändern : klicken Sie auf den grünen Tasten mit einem schwarzen Kreuz Zum Vergrößern, auf den grünen Button mit einem Gedankenstrich zu verkleinern, oder auf die grünen Pfeile für benachbarte Karten.


METAR-TAF: